createdAt,value
2022-07-29T00:01:43.594Z,101348.13
2022-07-29T00:04:13.377Z,101349.97
2022-07-29T00:06:42.124Z,101348.13
2022-07-29T00:09:09.981Z,101339.13
2022-07-29T00:11:37.831Z,101339.03
2022-07-29T00:14:06.951Z,101332.97
2022-07-29T00:16:34.849Z,101330.41
2022-07-29T00:19:02.877Z,101325.91
2022-07-29T00:21:32.169Z,101330.56
2022-07-29T00:24:00.170Z,101325.06
2022-07-29T00:26:32.530Z,101334.16
2022-07-29T00:29:31.933Z,101326.00
2022-07-29T00:31:49.132Z,101328.72
2022-07-29T00:34:31.011Z,101322.53
2022-07-29T00:37:00.335Z,101321.81
2022-07-29T00:39:28.287Z,101318.38
2022-07-29T00:41:56.807Z,101312.03
2022-07-29T00:44:24.659Z,101308.50
2022-07-29T00:46:52.521Z,101315.00
2022-07-29T00:49:20.496Z,101317.09
2022-07-29T00:51:49.418Z,101314.34
2022-07-29T00:54:19.040Z,101313.44
2022-07-29T00:56:47.160Z,101303.56
2022-07-29T00:59:14.970Z,101304.75
2022-07-29T01:01:42.835Z,101304.69
2022-07-29T01:04:10.743Z,101295.75
2022-07-29T01:06:39.041Z,101300.44
2022-07-29T01:09:07.408Z,101282.47
2022-07-29T01:11:37.376Z,101281.53
2022-07-29T01:14:09.133Z,101284.22
2022-07-29T01:16:44.512Z,101282.88
2022-07-29T01:19:33.765Z,101279.91
2022-07-29T01:22:15.814Z,101281.75
2022-07-29T01:25:04.483Z,101279.09
2022-07-29T01:27:53.071Z,101279.16
2022-07-29T01:30:24.579Z,101275.56
2022-07-29T01:32:57.542Z,101277.72
2022-07-29T01:35:28.339Z,101270.63
2022-07-29T01:38:03.228Z,101271.47
2022-07-29T01:40:36.834Z,101258.97
2022-07-29T01:43:11.279Z,101264.16
2022-07-29T01:45:43.472Z,101258.00
2022-07-29T01:48:17.231Z,101258.06
2022-07-29T01:50:51.371Z,101257.88
2022-07-29T01:53:26.215Z,101258.84
2022-07-29T01:55:55.545Z,101258.97
2022-07-29T01:58:27.792Z,101254.50
2022-07-29T02:00:59.339Z,101259.13
2022-07-29T02:03:29.500Z,101255.88
2022-07-29T02:06:00.361Z,101253.28
2022-07-29T02:08:30.178Z,101247.50
2022-07-29T02:10:59.862Z,101247.41
2022-07-29T02:13:29.833Z,101248.19
2022-07-29T02:16:00.457Z,101252.03
2022-07-29T02:18:30.932Z,101246.84
2022-07-29T02:21:01.522Z,101237.97
2022-07-29T02:23:30.184Z,101244.09
2022-07-29T02:25:59.921Z,101237.31
2022-07-29T02:28:30.585Z,101235.22
2022-07-29T02:31:03.270Z,101240.59
2022-07-29T02:33:33.352Z,101234.59
2022-07-29T02:36:02.874Z,101228.25
2022-07-29T02:38:50.505Z,101229.44
2022-07-29T02:41:20.816Z,101235.50
2022-07-29T02:43:50.624Z,101248.88
2022-07-29T02:46:29.533Z,101238.19
2022-07-29T02:49:01.776Z,101233.09
2022-07-29T02:51:43.468Z,101240.16
2022-07-29T02:54:17.005Z,101244.75
2022-07-29T02:56:46.353Z,101236.22
2022-07-29T02:59:17.828Z,101232.38
2022-07-29T03:01:47.859Z,101230.69
2022-07-29T03:04:18.584Z,101225.56
2022-07-29T03:06:48.127Z,101225.34
2022-07-29T03:09:16.934Z,101226.97
2022-07-29T03:11:50.605Z,101231.53
2022-07-29T03:14:20.996Z,101211.91
2022-07-29T03:16:51.701Z,101218.75
2022-07-29T03:19:21.103Z,101217.97
2022-07-29T03:21:49.317Z,101211.91
2022-07-29T03:24:30.676Z,101219.44
2022-07-29T03:26:58.959Z,101215.41
2022-07-29T03:29:33.268Z,101221.22
2022-07-29T03:32:08.035Z,101219.97
2022-07-29T03:34:37.571Z,101217.69
2022-07-29T03:37:06.730Z,101225.50
2022-07-29T03:39:38.591Z,101223.81
2022-07-29T03:42:08.824Z,101217.56
2022-07-29T03:44:38.267Z,101213.84
2022-07-29T03:47:10.212Z,101225.34
2022-07-29T03:49:39.787Z,101215.50
2022-07-29T03:52:08.016Z,101220.75
2022-07-29T03:54:36.201Z,101213.66
2022-07-29T03:57:07.773Z,101221.09
2022-07-29T03:59:36.430Z,101211.19
2022-07-29T04:02:05.310Z,101221.16
2022-07-29T04:04:37.040Z,101229.03
2022-07-29T04:07:05.551Z,101219.13
2022-07-29T04:09:33.755Z,101225.50
2022-07-29T04:12:04.086Z,101226.31
2022-07-29T04:14:33.163Z,101219.81
2022-07-29T04:17:01.179Z,101227.28
2022-07-29T04:19:29.576Z,101218.06
2022-07-29T04:21:58.785Z,101226.31
2022-07-29T04:24:26.654Z,101227.34
2022-07-29T04:26:55.274Z,101230.91
2022-07-29T04:29:23.148Z,101229.97
2022-07-29T04:31:50.969Z,101217.03
2022-07-29T04:34:19.465Z,101222.25
2022-07-29T04:36:47.805Z,101224.34
2022-07-29T04:39:22.772Z,101222.13
2022-07-29T04:41:52.594Z,101224.00
2022-07-29T04:44:26.574Z,101228.19
2022-07-29T04:46:58.492Z,101228.19
2022-07-29T04:49:27.017Z,101235.09
2022-07-29T04:51:55.728Z,101229.63
2022-07-29T04:54:25.558Z,101229.53
2022-07-29T04:56:53.551Z,101230.69
2022-07-29T04:59:21.341Z,101227.66
2022-07-29T05:01:49.289Z,101234.78
2022-07-29T05:04:17.431Z,101234.78
2022-07-29T05:06:45.528Z,101232.03
2022-07-29T05:09:13.372Z,101229.94
2022-07-29T05:11:42.574Z,101225.28
2022-07-29T05:14:10.579Z,101229.44
2022-07-29T05:16:40.066Z,101221.16
2022-07-29T05:19:13.674Z,101222.97
2022-07-29T05:21:42.117Z,101223.63
2022-07-29T05:24:10.105Z,101232.06
2022-07-29T05:26:37.945Z,101238.19
2022-07-29T05:29:07.112Z,101231.38
2022-07-29T05:31:35.470Z,101240.06
2022-07-29T05:34:03.561Z,101228.69
2022-07-29T05:36:31.447Z,101233.84
2022-07-29T05:38:59.297Z,101230.09
2022-07-29T05:41:27.212Z,101226.19
2022-07-29T05:43:55.070Z,101226.88
2022-07-29T05:46:24.360Z,101224.44
2022-07-29T05:48:52.513Z,101239.44
2022-07-29T05:51:20.316Z,101237.75
2022-07-29T05:53:48.200Z,101236.41
2022-07-29T05:56:16.365Z,101235.31
2022-07-29T05:58:44.284Z,101230.66
2022-07-29T06:01:12.137Z,101228.44
2022-07-29T06:03:42.281Z,101231.84
2022-07-29T06:06:10.114Z,101227.66
2022-07-29T06:08:38.563Z,101224.66
2022-07-29T06:11:07.136Z,101230.72
2022-07-29T06:13:34.911Z,101220.06
2022-07-29T06:16:02.850Z,101216.91
2022-07-29T06:18:30.746Z,101219.97
2022-07-29T06:21:00.060Z,101212.31
2022-07-29T06:23:27.941Z,101220.50
2022-07-29T06:25:55.788Z,101207.81
2022-07-29T06:28:23.636Z,101218.63
2022-07-29T06:30:51.466Z,101217.47
2022-07-29T06:33:20.204Z,101210.06
2022-07-29T06:35:53.627Z,101202.38
2022-07-29T06:38:30.682Z,101201.59
2022-07-29T06:41:03.088Z,101200.41
2022-07-29T06:43:34.613Z,101200.25
2022-07-29T06:46:03.505Z,101204.38
2022-07-29T06:48:31.823Z,101207.16
2022-07-29T06:51:00.146Z,101197.88
2022-07-29T06:53:29.750Z,101202.50
2022-07-29T06:55:59.112Z,101196.31
2022-07-29T06:58:27.303Z,101195.06
2022-07-29T07:01:00.209Z,101195.09
2022-07-29T07:03:28.208Z,101194.84
2022-07-29T07:05:56.843Z,101193.25
2022-07-29T07:08:25.559Z,101192.94
2022-07-29T07:10:56.216Z,101195.00
2022-07-29T07:13:24.017Z,101201.25
2022-07-29T07:15:52.784Z,101206.53
2022-07-29T07:18:21.105Z,101203.63
2022-07-29T07:20:51.946Z,101206.00
2022-07-29T07:23:19.821Z,101195.66
2022-07-29T07:25:47.651Z,101201.50
2022-07-29T07:28:16.838Z,101196.97
2022-07-29T07:30:44.776Z,101200.69
2022-07-29T07:33:12.683Z,101206.53
2022-07-29T07:35:40.825Z,101204.53
2022-07-29T07:38:12.937Z,101194.69
2022-07-29T07:40:41.286Z,101199.13
2022-07-29T07:43:09.156Z,101199.97
2022-07-29T07:45:38.943Z,101195.31
2022-07-29T07:48:07.242Z,101199.31
2022-07-29T07:50:35.148Z,101195.97
2022-07-29T07:53:03.218Z,101195.56
2022-07-29T07:55:47.544Z,101195.94
2022-07-29T07:58:19.240Z,101192.94
2022-07-29T08:00:49.039Z,101196.84
2022-07-29T08:03:17.475Z,101207.59
2022-07-29T08:05:47.483Z,101207.06
2022-07-29T08:08:15.353Z,101200.94
2022-07-29T08:10:56.785Z,101210.88
2022-07-29T08:13:28.210Z,101209.84
2022-07-29T08:16:01.943Z,101203.03
2022-07-29T08:18:31.796Z,101197.91
2022-07-29T08:21:00.455Z,101202.72
2022-07-29T08:23:46.001Z,101207.06
2022-07-29T08:26:16.996Z,101199.97
2022-07-29T08:28:46.921Z,101195.03
2022-07-29T08:31:16.661Z,101197.72
2022-07-29T08:33:47.676Z,101195.63
2022-07-29T08:36:15.597Z,101202.59
2022-07-29T08:38:43.608Z,101188.09
2022-07-29T08:41:11.571Z,101197.75
2022-07-29T08:43:39.714Z,101196.06
2022-07-29T08:46:07.965Z,101189.16
2022-07-29T08:48:38.511Z,101196.16
2022-07-29T08:51:09.000Z,101194.69
2022-07-29T08:53:39.139Z,101202.78
2022-07-29T08:56:07.972Z,101191.44
2022-07-29T08:58:38.297Z,101195.38
2022-07-29T09:01:07.574Z,101198.00
2022-07-29T09:03:40.043Z,101209.19
2022-07-29T09:06:08.403Z,101197.59
2022-07-29T09:08:36.626Z,101197.00
2022-07-29T09:11:05.303Z,101202.41
2022-07-29T09:13:33.894Z,101200.47
2022-07-29T09:16:07.149Z,101191.72
2022-07-29T09:18:37.921Z,101195.13
2022-07-29T09:21:25.943Z,101191.44
2022-07-29T09:24:10.170Z,101185.63
2022-07-29T09:26:39.433Z,101190.00
2022-07-29T09:29:12.062Z,101186.94
2022-07-29T09:31:43.767Z,101182.63
2022-07-29T09:34:13.126Z,101175.78
2022-07-29T09:36:43.604Z,101172.91
2022-07-29T09:39:11.670Z,101175.06
2022-07-29T09:41:48.032Z,101160.09
2022-07-29T09:44:15.870Z,101159.22
2022-07-29T09:46:58.410Z,101159.03
2022-07-29T09:49:27.134Z,101158.16
2022-07-29T09:52:07.354Z,101153.28
2022-07-29T09:54:38.637Z,101155.16
2022-07-29T09:57:09.890Z,101150.59
2022-07-29T09:59:37.727Z,101148.84
2022-07-29T10:02:23.718Z,101152.75
2022-07-29T10:04:53.008Z,101136.56
2022-07-29T10:07:22.223Z,101147.94
2022-07-29T10:09:56.374Z,101146.44
2022-07-29T10:12:25.032Z,101142.53
2022-07-29T10:14:53.710Z,101147.94
2022-07-29T10:17:22.709Z,101144.03
2022-07-29T10:19:52.866Z,101145.13
2022-07-29T10:22:43.670Z,101148.81
2022-07-29T10:25:11.400Z,101154.44
2022-07-29T10:27:40.135Z,101149.38
2022-07-29T10:30:11.758Z,101156.22
2022-07-29T10:32:54.318Z,101155.63
2022-07-29T10:35:37.879Z,101149.69
2022-07-29T10:38:45.733Z,101150.69
2022-07-29T10:41:32.353Z,101155.69
2022-07-29T10:44:07.404Z,101144.19
2022-07-29T10:46:37.965Z,101145.72
2022-07-29T10:49:11.607Z,101143.28
2022-07-29T10:51:58.481Z,101133.19
2022-07-29T10:54:46.158Z,101134.69
2022-07-29T10:57:52.539Z,101134.94
2022-07-29T11:00:33.033Z,101142.16
2022-07-29T11:03:04.797Z,101134.84
2022-07-29T11:05:59.914Z,101130.94
2022-07-29T11:08:28.908Z,101129.81
2022-07-29T11:11:32.306Z,101137.38
2022-07-29T11:14:02.055Z,101136.13
2022-07-29T11:17:07.157Z,101127.63
2022-07-29T11:19:37.119Z,101138.47
2022-07-29T11:22:11.322Z,101123.78
2022-07-29T11:24:50.043Z,101130.00
2022-07-29T11:27:20.906Z,101126.53
2022-07-29T11:29:55.777Z,101122.50
2022-07-29T11:32:25.410Z,101118.19
2022-07-29T11:35:18.030Z,101117.31
2022-07-29T11:37:52.830Z,101124.38
2022-07-29T11:40:25.590Z,101114.69
2022-07-29T11:42:53.834Z,101118.13
2022-07-29T11:45:42.697Z,101116.91
2022-07-29T11:48:28.432Z,101116.78
2022-07-29T11:51:13.348Z,101116.53
2022-07-29T11:53:41.777Z,101116.56
2022-07-29T11:56:11.304Z,101108.50
2022-07-29T11:58:44.314Z,101109.34
2022-07-29T12:01:19.336Z,101109.09
2022-07-29T12:03:47.164Z,101113.06
2022-07-29T12:06:18.010Z,101102.69
2022-07-29T12:08:47.380Z,101107.66
2022-07-29T12:11:21.245Z,101100.72
2022-07-29T12:13:50.490Z,101100.97
2022-07-29T12:16:29.395Z,101099.47
2022-07-29T12:18:59.383Z,101092.75
2022-07-29T12:21:29.157Z,101090.25
2022-07-29T12:24:03.401Z,101089.72
2022-07-29T12:26:35.731Z,101089.38
2022-07-29T12:29:07.309Z,101084.28
2022-07-29T12:31:42.407Z,101077.78
2022-07-29T12:34:12.781Z,101074.22
2022-07-29T12:36:40.947Z,101077.31
2022-07-29T12:39:10.090Z,101073.34
2022-07-29T12:41:38.179Z,101079.84
2022-07-29T12:44:06.441Z,101079.06
2022-07-29T12:46:34.388Z,101077.00
2022-07-29T12:49:04.358Z,101071.34
2022-07-29T12:51:33.035Z,101075.69
2022-07-29T12:54:06.023Z,101071.25
2022-07-29T12:56:42.821Z,101068.94
2022-07-29T12:59:16.996Z,101068.41
2022-07-29T13:01:45.074Z,101062.69
2022-07-29T13:04:26.914Z,101062.69
2022-07-29T13:07:01.185Z,101061.50
2022-07-29T13:09:40.398Z,101051.38
2022-07-29T13:12:10.882Z,101057.09
2022-07-29T13:14:40.300Z,101060.72
2022-07-29T13:17:09.832Z,101053.06
2022-07-29T13:19:41.442Z,101049.81
2022-07-29T13:22:09.590Z,101052.25
2022-07-29T13:24:48.189Z,101048.72
2022-07-29T13:27:16.393Z,101047.81
2022-07-29T13:29:44.229Z,101044.66
2022-07-29T13:32:14.233Z,101031.00
2022-07-29T13:34:43.689Z,101039.88
2022-07-29T13:37:12.105Z,101032.75
2022-07-29T13:39:40.717Z,101029.56
2022-07-29T13:42:11.034Z,101025.00
2022-07-29T13:44:41.030Z,101026.06
2022-07-29T13:47:09.223Z,101027.56
2022-07-29T13:49:37.481Z,101019.69
2022-07-29T13:52:08.381Z,101024.19
2022-07-29T13:54:42.107Z,101012.88
2022-07-29T13:57:11.552Z,101019.38
2022-07-29T13:59:40.011Z,101013.75
2022-07-29T14:02:08.356Z,101009.41
2022-07-29T14:04:36.642Z,101010.19
2022-07-29T14:07:09.289Z,101002.34
2022-07-29T14:09:41.435Z,101006.84
2022-07-29T14:12:11.039Z,101007.97
2022-07-29T14:14:38.860Z,101005.66
2022-07-29T14:17:08.095Z,101004.34
2022-07-29T14:19:38.693Z,100999.44
2022-07-29T14:22:09.483Z,101003.06
2022-07-29T14:24:39.593Z,101003.91
2022-07-29T14:27:09.188Z,100997.53
2022-07-29T14:29:38.738Z,100997.91
2022-07-29T14:32:07.879Z,100991.75
2022-07-29T14:34:36.594Z,100987.53
2022-07-29T14:37:06.414Z,100995.31
2022-07-29T14:39:42.832Z,100989.63
2022-07-29T14:42:11.704Z,100987.56
2022-07-29T14:44:42.081Z,100985.69
2022-07-29T14:47:10.343Z,100974.34
2022-07-29T14:49:38.515Z,100985.22
2022-07-29T14:52:06.913Z,100978.91
2022-07-29T14:54:36.102Z,100977.72
2022-07-29T14:57:04.063Z,100981.94
2022-07-29T14:59:31.973Z,100976.59
2022-07-29T15:02:00.202Z,100987.53
2022-07-29T15:04:32.635Z,100983.63
2022-07-29T15:07:00.592Z,100976.13
2022-07-29T15:09:28.477Z,100975.63
2022-07-29T15:11:58.027Z,100967.78
2022-07-29T15:14:26.090Z,100974.94
2022-07-29T15:16:54.297Z,100969.84
2022-07-29T15:19:22.227Z,100978.53
2022-07-29T15:21:51.411Z,100961.50
2022-07-29T15:24:19.556Z,100966.44
2022-07-29T15:26:47.939Z,100964.06
2022-07-29T15:29:18.335Z,100967.44
2022-07-29T15:31:46.249Z,100959.31
2022-07-29T15:34:14.254Z,100955.22
2022-07-29T15:36:52.094Z,100959.63
2022-07-29T15:39:21.174Z,100958.06
2022-07-29T15:41:49.127Z,100963.09
2022-07-29T15:44:19.878Z,100960.78
2022-07-29T15:47:08.053Z,100951.06
2022-07-29T15:49:47.134Z,100949.34
2022-07-29T15:52:19.024Z,100952.13
2022-07-29T15:54:52.715Z,100948.75
2022-07-29T15:57:20.561Z,100947.22
2022-07-29T15:59:49.786Z,100950.75
2022-07-29T16:02:17.726Z,100955.25
2022-07-29T16:04:45.623Z,100953.81
2022-07-29T16:07:14.223Z,100945.53
2022-07-29T16:09:42.532Z,100948.44
2022-07-29T16:12:15.435Z,100947.25
2022-07-29T16:14:44.232Z,100941.13
2022-07-29T16:17:14.358Z,100942.94
2022-07-29T16:19:43.309Z,100938.34
2022-07-29T16:22:11.349Z,100942.31
2022-07-29T16:24:39.350Z,100943.34
2022-07-29T16:27:07.838Z,100933.31
2022-07-29T16:29:36.929Z,100933.31
2022-07-29T16:32:05.518Z,100935.91
2022-07-29T16:34:34.950Z,100928.91
2022-07-29T16:37:03.342Z,100932.03
2022-07-29T16:39:34.683Z,100931.75
2022-07-29T16:42:05.154Z,100940.50
2022-07-29T16:44:35.369Z,100942.97
2022-07-29T16:47:03.965Z,100937.78
2022-07-29T16:49:32.245Z,100940.22
2022-07-29T16:52:01.765Z,100934.34
2022-07-29T16:54:29.797Z,100933.47
2022-07-29T16:57:00.585Z,100934.59
2022-07-29T16:59:29.085Z,100929.44
2022-07-29T17:01:57.705Z,100929.97
2022-07-29T17:04:26.024Z,100928.53
2022-07-29T17:06:53.899Z,100934.28
2022-07-29T17:09:23.294Z,100927.38
2022-07-29T17:11:55.147Z,100934.25
2022-07-29T17:14:25.524Z,100939.34
2022-07-29T17:17:01.186Z,100940.19
2022-07-29T17:19:31.857Z,100931.41
2022-07-29T17:22:14.055Z,100932.38
2022-07-29T17:24:45.348Z,100927.59
2022-07-29T17:27:13.745Z,100927.69
2022-07-29T17:29:42.244Z,100924.50
2022-07-29T17:32:11.527Z,100921.28
2022-07-29T17:34:40.545Z,100917.41
2022-07-29T17:37:10.649Z,100918.94
2022-07-29T17:39:40.868Z,100920.47
2022-07-29T17:42:10.998Z,100918.28
2022-07-29T17:44:39.242Z,100921.53
2022-07-29T17:47:07.919Z,100914.91
2022-07-29T17:49:43.736Z,100918.13
2022-07-29T17:52:11.888Z,100918.69
2022-07-29T17:54:39.739Z,100928.09
2022-07-29T17:57:08.204Z,100924.88
2022-07-29T17:59:37.441Z,100928.81
2022-07-29T18:02:05.454Z,100927.34
2022-07-29T18:04:33.737Z,100925.63
2022-07-29T18:07:01.936Z,100930.72
2022-07-29T18:09:30.052Z,100929.25
2022-07-29T18:11:57.838Z,100928.03
2022-07-29T18:14:25.955Z,100933.88
2022-07-29T18:16:57.613Z,100924.25
2022-07-29T18:19:25.703Z,100931.16
2022-07-29T18:21:55.268Z,100931.56
2022-07-29T18:24:25.406Z,100930.84
2022-07-29T18:26:53.800Z,100928.47
2022-07-29T18:29:21.935Z,100930.59
2022-07-29T18:31:50.126Z,100937.38
2022-07-29T18:34:20.121Z,100937.75
2022-07-29T18:36:49.361Z,100940.97
2022-07-29T18:39:20.927Z,100942.19
2022-07-29T18:41:52.133Z,100940.81
2022-07-29T18:44:21.905Z,100948.50
2022-07-29T18:46:51.347Z,100952.44
2022-07-29T18:49:20.937Z,100954.66
2022-07-29T18:51:48.949Z,100947.03
2022-07-29T18:54:17.547Z,100953.69
2022-07-29T18:56:48.632Z,100956.59
2022-07-29T18:59:19.609Z,100954.16
2022-07-29T19:01:48.433Z,100954.66
2022-07-29T19:04:17.022Z,100960.28
2022-07-29T19:06:46.440Z,100962.53
2022-07-29T19:09:14.365Z,100957.44
2022-07-29T19:11:42.176Z,100961.38
2022-07-29T19:14:10.026Z,100960.78
2022-07-29T19:16:37.936Z,100966.38
2022-07-29T19:19:07.192Z,100963.06
2022-07-29T19:21:35.887Z,100964.28
2022-07-29T19:24:07.730Z,100964.63
2022-07-29T19:26:42.058Z,100961.19
2022-07-29T19:29:09.995Z,100971.38
2022-07-29T19:31:37.986Z,100968.06
2022-07-29T19:34:05.942Z,100971.00
2022-07-29T19:36:33.827Z,100977.63
2022-07-29T19:39:02.146Z,100978.13
2022-07-29T19:41:31.495Z,100990.16
2022-07-29T19:43:59.389Z,100987.91
2022-07-29T19:46:29.053Z,100989.97
2022-07-29T19:48:57.844Z,100989.75
2022-07-29T19:51:28.073Z,101000.06
2022-07-29T19:53:56.041Z,101003.28
2022-07-29T19:56:26.563Z,101010.63
2022-07-29T19:58:55.771Z,101012.69
2022-07-29T20:01:24.685Z,101017.25
2022-07-29T20:03:53.801Z,101014.41
2022-07-29T20:06:22.996Z,101022.19
2022-07-29T20:08:55.411Z,101024.81
2022-07-29T20:11:26.430Z,101027.22
2022-07-29T20:13:55.600Z,101039.13
2022-07-29T20:16:23.532Z,101041.59
2022-07-29T20:18:53.360Z,101042.34
2022-07-29T20:21:21.204Z,101043.19
2022-07-29T20:23:49.023Z,101047.06
2022-07-29T20:26:16.809Z,101048.38
2022-07-29T20:28:47.632Z,101047.56
2022-07-29T20:31:18.856Z,101045.94
2022-07-29T20:33:46.863Z,101037.38
2022-07-29T20:36:14.872Z,101044.81
2022-07-29T20:38:42.670Z,101047.53
2022-07-29T20:41:10.523Z,101052.34
2022-07-29T20:43:39.183Z,101051.16
2022-07-29T20:46:07.267Z,101048.22
2022-07-29T20:48:36.449Z,101052.13
2022-07-29T20:51:04.249Z,101055.78
2022-07-29T20:53:33.239Z,101060.28
2022-07-29T20:56:01.504Z,101053.53
2022-07-29T20:58:29.278Z,101049.50
2022-07-29T21:00:57.530Z,101056.28
2022-07-29T21:03:25.367Z,101061.09
2022-07-29T21:05:54.571Z,101062.16
2022-07-29T21:08:22.401Z,101056.28
2022-07-29T21:10:50.222Z,101050.69
2022-07-29T21:13:19.699Z,101055.56
2022-07-29T21:15:49.548Z,101059.94
2022-07-29T21:18:27.808Z,101061.69
2022-07-29T21:20:57.430Z,101067.09
2022-07-29T21:23:25.793Z,101066.72
2022-07-29T21:25:54.197Z,101061.44
2022-07-29T21:28:27.116Z,101070.06
2022-07-29T21:30:55.031Z,101075.03
2022-07-29T21:33:23.072Z,101081.28
2022-07-29T21:38:40.209Z,101084.66
2022-07-29T21:41:08.137Z,101073.66
2022-07-29T21:43:36.052Z,101079.47
2022-07-29T21:46:04.074Z,101087.38
2022-07-29T21:48:31.907Z,101088.31
2022-07-29T21:50:59.891Z,101087.47
2022-07-29T21:53:27.843Z,101086.41
2022-07-29T21:55:57.208Z,101096.63
2022-07-29T21:58:25.305Z,101106.16
2022-07-29T22:00:53.875Z,101112.28
2022-07-29T22:03:21.982Z,101121.25
2022-07-29T22:05:49.865Z,101119.81
2022-07-29T22:08:17.677Z,101134.34
2022-07-29T22:10:45.540Z,101127.75
2022-07-29T22:13:14.718Z,101125.16
2022-07-29T22:15:46.962Z,101131.91
2022-07-29T22:18:20.767Z,101122.84
2022-07-29T22:20:49.466Z,101113.63
2022-07-29T22:23:17.481Z,101109.09
2022-07-29T22:25:45.305Z,101113.63
2022-07-29T22:28:14.510Z,101102.72
2022-07-29T22:30:42.467Z,101108.97
2022-07-29T22:33:17.464Z,101099.50
2022-07-29T22:35:48.626Z,101091.53
2022-07-29T22:38:17.064Z,101098.53
2022-07-29T22:40:45.005Z,101098.13
2022-07-29T22:43:14.480Z,101090.91
2022-07-29T22:45:42.515Z,101095.00
2022-07-29T22:48:10.524Z,101092.34
2022-07-29T22:50:39.449Z,101094.84
2022-07-29T22:53:07.223Z,101092.34
2022-07-29T22:55:35.062Z,101091.56
2022-07-29T22:58:02.876Z,101092.91
2022-07-29T23:00:32.306Z,101092.91
2022-07-29T23:03:00.177Z,101086.72
2022-07-29T23:05:28.085Z,101084.84
2022-07-29T23:07:55.980Z,101090.53
2022-07-29T23:10:23.771Z,101082.81
2022-07-29T23:12:51.547Z,101093.94
2022-07-29T23:15:19.579Z,101086.59
2022-07-29T23:17:49.019Z,101098.13
2022-07-29T23:20:16.869Z,101094.81
2022-07-29T23:22:44.817Z,101090.41
2022-07-29T23:25:12.684Z,101088.97
2022-07-29T23:27:40.561Z,101082.81
2022-07-29T23:30:09.338Z,101084.22
2022-07-29T23:32:37.143Z,101067.00
2022-07-29T23:35:08.130Z,101078.53
2022-07-29T23:37:36.547Z,101080.44
2022-07-29T23:40:04.861Z,101091.81
2022-07-29T23:42:32.751Z,101084.09
2022-07-29T23:45:00.553Z,101093.41
2022-07-29T23:47:29.012Z,101091.91
2022-07-29T23:49:56.886Z,101089.47
2022-07-29T23:52:26.081Z,101079.84
2022-07-29T23:54:55.191Z,101083.94
2022-07-29T23:57:42.949Z,101083.38
